createdAt,value
2022-10-05T00:01:33.812Z,85.27
2022-10-05T00:05:33.963Z,85.24
2022-10-05T00:09:32.800Z,85.23
2022-10-05T00:13:32.610Z,85.27
2022-10-05T00:17:10.637Z,85.28
2022-10-05T00:21:25.397Z,85.26
2022-10-05T00:25:24.650Z,85.17
2022-10-05T00:29:24.287Z,85.12
2022-10-05T00:33:22.113Z,85.07
2022-10-05T00:37:34.097Z,85.03
2022-10-05T00:42:00.101Z,84.97
2022-10-05T00:46:34.321Z,84.95
2022-10-05T00:50:50.801Z,85.00
2022-10-05T00:55:13.963Z,84.99
2022-10-05T00:59:44.196Z,84.98
2022-10-05T01:04:13.561Z,84.89
2022-10-05T01:08:48.956Z,84.73
2022-10-05T01:13:45.797Z,84.70
2022-10-05T01:18:03.174Z,84.81
2022-10-05T01:22:14.285Z,84.82
2022-10-05T01:27:04.122Z,84.86
2022-10-05T01:31:33.442Z,84.83
2022-10-05T01:35:55.284Z,84.70
2022-10-05T01:40:06.837Z,84.76
2022-10-05T01:44:15.636Z,84.76
2022-10-05T01:48:29.543Z,84.75
2022-10-05T01:52:48.458Z,84.76
2022-10-05T01:57:11.120Z,84.59
2022-10-05T02:01:32.595Z,84.60
2022-10-05T02:05:41.359Z,84.49
2022-10-05T02:10:02.795Z,84.49
2022-10-05T02:14:11.497Z,84.53
2022-10-05T02:18:16.317Z,84.54
2022-10-05T02:22:39.634Z,84.79
2022-10-05T02:26:40.795Z,85.09
2022-10-05T02:30:54.379Z,85.32
2022-10-05T02:34:52.956Z,85.57
2022-10-05T02:38:53.634Z,85.92
2022-10-05T02:43:10.380Z,86.13
2022-10-05T02:47:34.114Z,86.31
2022-10-05T02:51:40.799Z,86.31
2022-10-05T02:55:57.794Z,86.31
2022-10-05T03:00:33.674Z,86.26
2022-10-05T03:05:17.614Z,86.25
2022-10-05T03:09:21.281Z,86.19
2022-10-05T03:13:52.435Z,86.17
2022-10-05T03:18:30.801Z,86.21
2022-10-05T03:23:04.137Z,86.22
2022-10-05T03:27:15.474Z,86.27
2022-10-05T03:31:36.723Z,86.30
2022-10-05T03:35:35.318Z,86.36
2022-10-05T03:39:48.214Z,86.37
2022-10-05T03:44:25.786Z,86.33
2022-10-05T03:48:35.761Z,86.18
2022-10-05T03:52:56.274Z,86.00
2022-10-05T03:57:07.575Z,85.83
2022-10-05T04:01:13.375Z,85.65
2022-10-05T04:05:12.594Z,85.54
2022-10-05T04:09:15.797Z,85.50
2022-10-05T04:13:40.678Z,85.39
2022-10-05T04:17:43.393Z,85.28
2022-10-05T04:21:48.576Z,85.26
2022-10-05T04:25:52.928Z,85.25
2022-10-05T04:30:00.947Z,85.15
2022-10-05T04:34:26.878Z,85.03
2022-10-05T04:39:11.787Z,84.78
2022-10-05T04:43:30.103Z,84.56
2022-10-05T04:47:58.712Z,84.39
2022-10-05T04:52:06.534Z,84.26
2022-10-05T04:56:18.401Z,84.19
2022-10-05T05:00:57.875Z,84.12
2022-10-05T05:05:21.909Z,84.03
2022-10-05T05:09:40.017Z,83.90
2022-10-05T05:13:17.657Z,83.82
2022-10-05T05:17:32.108Z,83.76
2022-10-05T05:21:42.347Z,83.59
2022-10-05T05:25:56.543Z,83.58
2022-10-05T05:30:19.075Z,83.42
2022-10-05T05:34:37.978Z,83.43
2022-10-05T05:38:50.429Z,83.48
2022-10-05T05:43:30.044Z,83.47
2022-10-05T05:47:41.020Z,83.51
2022-10-05T05:52:16.612Z,83.49
2022-10-05T05:55:38.928Z,83.54
2022-10-05T05:59:33.130Z,83.45
2022-10-05T06:03:43.268Z,83.43
2022-10-05T06:08:02.076Z,83.37
2022-10-05T06:12:42.628Z,83.29
2022-10-05T06:16:49.815Z,83.08
2022-10-05T06:20:57.174Z,83.10
2022-10-05T06:25:12.199Z,82.96
2022-10-05T06:29:19.555Z,82.83
2022-10-05T06:33:46.508Z,82.88
2022-10-05T06:38:15.415Z,82.93
2022-10-05T06:43:00.704Z,82.91
2022-10-05T06:47:23.068Z,82.80
2022-10-05T06:52:22.087Z,82.70
2022-10-05T06:56:31.584Z,82.63
2022-10-05T07:00:44.196Z,82.84
2022-10-05T07:04:52.766Z,83.04
2022-10-05T07:09:25.935Z,82.87
2022-10-05T07:13:47.603Z,82.78
2022-10-05T07:18:18.479Z,82.75
2022-10-05T07:22:54.533Z,82.59
2022-10-05T07:27:20.682Z,82.80
2022-10-05T07:31:49.960Z,82.83
2022-10-05T07:36:27.402Z,82.84
2022-10-05T07:40:38.200Z,82.98
2022-10-05T07:44:48.726Z,82.96
2022-10-05T07:49:16.448Z,82.96
2022-10-05T07:54:10.990Z,82.81
2022-10-05T07:58:48.800Z,82.51
2022-10-05T08:02:58.651Z,82.14
2022-10-05T08:06:32.399Z,82.08
2022-10-05T08:10:47.339Z,82.02
2022-10-05T08:15:00.608Z,81.92
2022-10-05T08:19:21.572Z,81.82
2022-10-05T08:23:19.974Z,81.70
2022-10-05T08:31:52.629Z,81.45
2022-10-05T08:36:13.260Z,81.22
2022-10-05T08:39:49.524Z,81.05
2022-10-05T08:44:00.352Z,81.01
2022-10-05T08:48:38.678Z,80.97
2022-10-05T08:53:20.382Z,80.87
2022-10-05T08:56:28.811Z,80.88
2022-10-05T09:00:53.360Z,80.77
2022-10-05T09:05:12.209Z,80.56
2022-10-05T09:09:06.712Z,80.53
2022-10-05T09:13:31.823Z,80.48
2022-10-05T09:18:09.399Z,80.13
2022-10-05T09:22:38.912Z,79.71
2022-10-05T09:27:02.733Z,79.28
2022-10-05T09:31:23.342Z,78.80
2022-10-05T09:35:43.626Z,78.41
2022-10-05T09:45:08.846Z,76.98
2022-10-05T09:48:39.707Z,76.64
2022-10-05T09:53:07.652Z,76.24
2022-10-05T09:56:21.580Z,76.40
2022-10-05T10:00:29.131Z,76.55
2022-10-05T10:05:07.207Z,76.53
2022-10-05T10:08:48.054Z,76.58
2022-10-05T10:12:14.272Z,76.44
2022-10-05T10:16:26.451Z,76.59
2022-10-05T10:20:31.312Z,75.85
2022-10-05T10:24:49.371Z,75.26
2022-10-05T10:28:24.162Z,75.06
2022-10-05T10:33:00.037Z,75.27
2022-10-05T10:37:04.327Z,75.23
2022-10-05T10:41:38.464Z,75.48
2022-10-05T10:46:06.812Z,75.64
2022-10-05T10:50:08.493Z,75.78
2022-10-05T10:54:04.235Z,75.71
2022-10-05T10:58:21.526Z,75.93
2022-10-05T11:02:37.562Z,76.07
2022-10-05T11:07:11.987Z,76.17
2022-10-05T11:11:31.138Z,76.35
2022-10-05T11:15:09.833Z,76.44
2022-10-05T11:20:02.927Z,76.46
2022-10-05T11:24:29.750Z,76.54
2022-10-05T11:29:06.126Z,76.70
2022-10-05T11:33:44.307Z,76.74
2022-10-05T11:38:20.440Z,76.83
2022-10-05T11:42:40.013Z,76.87
2022-10-05T11:46:59.141Z,76.84
2022-10-05T11:50:55.502Z,76.90
2022-10-05T11:55:12.626Z,76.82
2022-10-05T11:59:17.044Z,76.91
2022-10-05T12:03:30.811Z,76.85
2022-10-05T12:08:12.135Z,76.32
2022-10-05T12:12:27.576Z,76.59
2022-10-05T12:16:45.398Z,76.94
2022-10-05T12:21:09.610Z,76.85
2022-10-05T12:25:17.344Z,76.68
2022-10-05T12:29:36.121Z,76.43
2022-10-05T12:34:09.497Z,76.36
2022-10-05T12:38:41.335Z,76.44
2022-10-05T12:43:05.829Z,76.59
2022-10-05T12:46:50.114Z,76.66
2022-10-05T12:50:54.941Z,76.47
2022-10-05T12:55:26.240Z,76.63
2022-10-05T12:59:38.295Z,76.39
2022-10-05T13:03:52.832Z,76.18
2022-10-05T13:08:08.998Z,76.38
2022-10-05T13:12:49.366Z,76.38
2022-10-05T13:17:06.997Z,76.28
2022-10-05T13:21:31.045Z,75.82
2022-10-05T13:26:19.859Z,75.69
2022-10-05T13:30:22.511Z,75.95
2022-10-05T13:42:05.074Z,76.17
2022-10-05T13:46:16.057Z,75.84
2022-10-05T13:50:50.123Z,75.71
2022-10-05T13:55:07.302Z,75.64
2022-10-05T13:59:17.973Z,75.83
2022-10-05T14:03:37.642Z,75.77
2022-10-05T14:07:49.465Z,75.56
2022-10-05T14:11:51.832Z,75.64
2022-10-05T14:16:14.428Z,75.88
2022-10-05T14:19:48.937Z,76.24
2022-10-05T14:23:32.754Z,76.54
2022-10-05T14:26:59.800Z,76.82
2022-10-05T14:30:35.584Z,76.98
2022-10-05T14:34:35.659Z,77.38
2022-10-05T14:38:00.503Z,77.68
2022-10-05T14:41:28.649Z,78.05
2022-10-05T14:45:22.008Z,77.99
2022-10-05T14:48:44.593Z,78.21
2022-10-05T14:52:33.015Z,78.22
2022-10-05T14:56:25.599Z,78.40
2022-10-05T14:59:55.315Z,78.51
2022-10-05T15:03:32.576Z,78.72
2022-10-05T15:07:32.422Z,78.89
2022-10-05T15:10:43.750Z,79.04
2022-10-05T15:14:43.763Z,79.13
2022-10-05T15:17:52.771Z,79.32
2022-10-05T15:21:35.726Z,79.66
2022-10-05T15:25:11.772Z,79.94
2022-10-05T15:28:51.722Z,80.06
2022-10-05T15:32:31.434Z,80.19
2022-10-05T15:36:12.708Z,80.30
2022-10-05T15:39:54.967Z,80.38
2022-10-05T15:43:16.702Z,80.53
2022-10-05T15:46:51.399Z,80.60
2022-10-05T15:50:19.341Z,80.68
2022-10-05T15:54:30.982Z,80.71
2022-10-05T15:57:58.475Z,80.52
2022-10-05T16:01:10.827Z,80.42
2022-10-05T16:05:04.494Z,80.34
2022-10-05T16:08:56.075Z,80.20
2022-10-05T16:12:28.786Z,80.19
2022-10-05T16:15:48.740Z,80.24
2022-10-05T16:19:27.321Z,80.39
2022-10-05T16:26:51.995Z,80.79
2022-10-05T16:30:09.790Z,80.85
2022-10-05T16:33:54.620Z,80.94
2022-10-05T16:37:38.795Z,81.06
2022-10-05T16:41:10.159Z,81.15
2022-10-05T16:44:34.176Z,81.30
2022-10-05T16:48:13.645Z,81.47
2022-10-05T16:52:10.955Z,81.58
2022-10-05T16:55:35.801Z,81.73
2022-10-05T16:59:04.555Z,81.87
2022-10-05T17:02:56.769Z,82.04
2022-10-05T17:06:21.081Z,82.27
2022-10-05T17:10:11.919Z,82.40
2022-10-05T17:13:50.364Z,82.47
2022-10-05T17:17:08.372Z,82.68
2022-10-05T17:20:42.568Z,82.73
2022-10-05T17:24:51.918Z,82.81
2022-10-05T17:28:11.960Z,82.92
2022-10-05T17:31:31.429Z,83.00
2022-10-05T17:35:20.466Z,83.05
2022-10-05T17:38:52.384Z,83.19
2022-10-05T17:42:34.555Z,83.39
2022-10-05T17:46:06.939Z,83.50
2022-10-05T17:49:40.041Z,83.63
2022-10-05T17:53:57.090Z,83.72
2022-10-05T17:56:57.463Z,83.79
2022-10-05T18:01:01.882Z,83.86
2022-10-05T18:04:13.701Z,83.88
2022-10-05T18:08:08.606Z,84.01
2022-10-05T18:11:38.041Z,84.28
2022-10-05T18:15:05.612Z,84.58
2022-10-05T18:18:44.195Z,84.76
2022-10-05T18:22:18.011Z,84.80
2022-10-05T18:25:51.270Z,84.83
2022-10-05T18:29:56.510Z,84.99
2022-10-05T18:33:40.534Z,84.94
2022-10-05T18:36:55.123Z,85.07
2022-10-05T18:40:42.187Z,85.11
2022-10-05T18:44:16.486Z,85.17
2022-10-05T18:47:59.254Z,85.25
2022-10-05T18:51:39.409Z,85.34
2022-10-05T18:55:10.561Z,85.42
2022-10-05T18:58:56.749Z,85.58
2022-10-05T19:02:13.667Z,85.64
2022-10-05T19:05:55.591Z,85.70
2022-10-05T19:19:43.760Z,86.27
2022-10-05T19:23:23.621Z,86.21
2022-10-05T19:27:10.004Z,86.33
2022-10-05T19:30:44.135Z,86.31
2022-10-05T19:34:04.961Z,86.38
2022-10-05T19:37:34.224Z,86.42
2022-10-05T19:40:59.562Z,86.47
2022-10-05T19:44:59.671Z,86.51
2022-10-05T19:48:20.371Z,86.57
2022-10-05T19:51:51.335Z,86.58
2022-10-05T19:55:34.852Z,86.62
2022-10-05T19:59:27.681Z,86.67
2022-10-05T20:02:42.203Z,86.73
2022-10-05T20:06:24.986Z,86.76
2022-10-05T20:10:05.295Z,86.86
2022-10-05T20:13:36.959Z,86.81
2022-10-05T20:17:49.946Z,86.84
2022-10-05T20:20:55.657Z,86.87
2022-10-05T20:24:51.219Z,86.96
2022-10-05T20:28:08.141Z,86.98
2022-10-05T20:31:42.071Z,86.92
2022-10-05T20:35:23.123Z,86.92
2022-10-05T20:39:00.232Z,86.89
2022-10-05T20:42:32.243Z,86.85
2022-10-05T20:46:08.967Z,86.85
2022-10-05T20:49:49.625Z,86.93
2022-10-05T20:57:01.053Z,87.12
2022-10-05T21:00:55.118Z,87.06
2022-10-05T21:04:13.416Z,87.06
2022-10-05T21:07:49.927Z,87.12
2022-10-05T21:11:27.131Z,87.13
2022-10-05T21:15:07.228Z,87.22
2022-10-05T21:18:41.236Z,87.33
2022-10-05T21:22:16.860Z,87.35
2022-10-05T21:25:55.164Z,87.43
2022-10-05T21:29:31.666Z,87.40
2022-10-05T21:33:07.425Z,87.37
2022-10-05T21:47:13.018Z,89.04
2022-10-05T21:50:13.306Z,88.87
2022-10-05T21:54:14.080Z,88.62
2022-10-05T21:57:27.338Z,88.42
2022-10-05T22:01:03.904Z,88.32
2022-10-05T22:04:40.755Z,88.18
2022-10-05T22:08:27.640Z,88.04
2022-10-05T22:11:55.036Z,88.01
2022-10-05T22:15:32.145Z,88.06
2022-10-05T22:19:16.244Z,88.03
2022-10-05T22:22:44.744Z,88.05
2022-10-05T22:26:23.330Z,88.05
2022-10-05T22:29:58.881Z,88.06
2022-10-05T22:33:43.481Z,88.02
2022-10-05T22:37:13.342Z,88.00
2022-10-05T22:40:48.917Z,87.94
2022-10-05T22:44:25.997Z,87.87
2022-10-05T22:48:02.261Z,87.91
2022-10-05T22:51:39.336Z,87.87
2022-10-05T22:55:16.194Z,87.86
2022-10-05T22:58:52.893Z,87.96
2022-10-05T23:02:35.780Z,88.14
2022-10-05T23:06:09.802Z,88.09
2022-10-05T23:09:43.724Z,88.10
2022-10-05T23:13:21.221Z,88.17
2022-10-05T23:17:00.064Z,88.09
2022-10-05T23:20:39.738Z,87.93
2022-10-05T23:24:10.524Z,87.82
2022-10-05T23:27:49.779Z,87.65
2022-10-05T23:31:30.365Z,87.53
2022-10-05T23:35:04.597Z,87.40
2022-10-05T23:38:48.805Z,87.26
2022-10-05T23:42:24.282Z,87.13
2022-10-05T23:45:51.546Z,87.00
2022-10-05T23:49:28.450Z,86.85
2022-10-05T23:53:05.202Z,86.72
2022-10-05T23:56:42.822Z,86.64
